createdAt,value
2022-08-02T00:10:41.628Z,98693.42
2022-08-02T00:21:10.572Z,98681.77
2022-08-02T00:31:40.889Z,98681.90
2022-08-02T00:42:11.074Z,98691.88
2022-08-02T00:52:40.096Z,98702.53
2022-08-02T01:03:09.098Z,98703.13
2022-08-02T01:13:38.301Z,98712.36
2022-08-02T01:24:22.924Z,98716.30
2022-08-02T01:34:56.918Z,98712.30
2022-08-02T01:45:28.570Z,98715.91
2022-08-02T01:55:59.993Z,98728.55
2022-08-02T02:06:29.643Z,98735.77
2022-08-02T02:16:59.687Z,98731.91
2022-08-02T02:27:29.787Z,98731.17
2022-08-02T02:38:01.116Z,98742.63
2022-08-02T02:48:31.408Z,98746.05
2022-08-02T02:59:01.135Z,98745.04
2022-08-02T03:09:30.235Z,98742.87
2022-08-02T03:19:59.573Z,98741.17
2022-08-02T03:30:28.880Z,98742.83
2022-08-02T03:40:59.273Z,98752.70
2022-08-02T03:51:29.012Z,98765.19
2022-08-02T04:01:58.182Z,98774.02
2022-08-02T04:12:31.150Z,98782.71
2022-08-02T04:23:03.137Z,98795.04
2022-08-02T04:33:32.842Z,98801.67
2022-08-02T04:44:02.006Z,98810.33
2022-08-02T04:54:31.281Z,98807.94
2022-08-02T05:05:00.475Z,98813.98
2022-08-02T05:15:33.237Z,98823.81
2022-08-02T05:26:02.830Z,98827.60
2022-08-02T05:36:32.021Z,98829.56
2022-08-02T05:47:01.184Z,98844.33
2022-08-02T05:57:44.081Z,98855.22
2022-08-02T06:08:14.888Z,98859.67
2022-08-02T06:18:45.419Z,98867.58
2022-08-02T06:29:16.014Z,98877.41
2022-08-02T06:39:49.926Z,98887.17
2022-08-02T06:50:19.246Z,98891.37
2022-08-02T07:00:48.655Z,98892.34
2022-08-02T07:11:19.728Z,98892.25
2022-08-02T07:21:57.304Z,98891.89
2022-08-02T07:32:32.257Z,98891.45
2022-08-02T07:43:04.237Z,98887.19
2022-08-02T07:53:51.372Z,98892.55
2022-08-02T08:04:23.422Z,98895.55
2022-08-02T08:14:52.805Z,98900.77
2022-08-02T08:25:22.550Z,98911.69
2022-08-02T08:35:51.721Z,98921.89
2022-08-02T08:46:28.765Z,98917.97
2022-08-02T08:56:59.366Z,98930.12
2022-08-02T09:07:29.002Z,98929.50
2022-08-02T09:17:58.432Z,98930.55
2022-08-02T09:28:30.436Z,98929.23
2022-08-02T09:39:02.163Z,98935.87
2022-08-02T09:49:35.019Z,98928.45
2022-08-02T10:00:08.703Z,98918.95
2022-08-02T10:10:47.060Z,98915.58
2022-08-02T10:21:22.692Z,98899.15
2022-08-02T10:31:56.287Z,98904.92
2022-08-02T10:42:48.784Z,98910.06
2022-08-02T10:53:32.129Z,98904.60
2022-08-02T11:04:09.756Z,98900.86
2022-08-02T11:14:41.306Z,98890.73
2022-08-02T11:26:02.859Z,98892.83
2022-08-02T11:36:26.222Z,98892.91
2022-08-02T11:47:03.444Z,98885.79
2022-08-02T11:58:03.055Z,98882.64
2022-08-02T12:08:25.535Z,98883.29
2022-08-02T12:19:11.931Z,98873.38
2022-08-02T12:29:58.613Z,98857.38
2022-08-02T12:40:32.159Z,98856.52
2022-08-02T12:51:01.442Z,98857.90
2022-08-02T13:01:31.966Z,98857.25
2022-08-02T13:12:01.274Z,98861.59
2022-08-02T13:22:32.698Z,98858.67
2022-08-02T13:33:03.290Z,98858.23
2022-08-02T13:43:53.684Z,98851.48
2022-08-02T13:54:21.638Z,98848.58
2022-08-02T14:04:50.810Z,98844.05
2022-08-02T14:15:20.247Z,98843.27
2022-08-02T14:25:49.362Z,98842.94
2022-08-02T14:36:27.505Z,98837.94
2022-08-02T14:46:57.543Z,98831.23
2022-08-02T14:57:26.890Z,98828.33
2022-08-02T15:07:56.038Z,98831.73
2022-08-02T15:18:25.199Z,98835.66
2022-08-02T15:28:55.590Z,98836.52
2022-08-02T15:39:25.222Z,98832.64
2022-08-02T15:49:54.435Z,98830.73
2022-08-02T16:00:24.034Z,98825.63
2022-08-02T16:10:53.508Z,98822.04
2022-08-02T16:21:25.045Z,98824.98
2022-08-02T16:31:54.399Z,98834.36
2022-08-02T16:42:25.198Z,98830.45
2022-08-02T16:52:54.839Z,98830.00
2022-08-02T17:03:24.649Z,98840.60
2022-08-02T17:14:13.976Z,98841.13
2022-08-02T17:24:45.179Z,98843.88
2022-08-02T17:35:18.267Z,98843.10
2022-08-02T17:46:00.854Z,98855.14
2022-08-02T17:56:31.599Z,98854.38
2022-08-02T18:07:03.914Z,98863.65
2022-08-02T18:17:33.728Z,98869.43
2022-08-02T18:28:03.294Z,98874.40
2022-08-02T18:38:32.459Z,98875.84
2022-08-02T18:49:06.819Z,98879.86
2022-08-02T18:59:44.612Z,98890.85
2022-08-02T19:10:20.708Z,98897.65
2022-08-02T19:20:50.348Z,98916.02
2022-08-02T19:31:20.142Z,98913.54
2022-08-02T19:41:49.780Z,98913.83
2022-08-02T19:52:25.034Z,98914.58
2022-08-02T20:02:54.761Z,98915.96
2022-08-02T20:13:24.532Z,98916.16
2022-08-02T20:23:55.953Z,98924.06
2022-08-02T20:34:26.901Z,98931.20
2022-08-02T20:44:56.302Z,98933.37
2022-08-02T20:55:25.835Z,98940.48
2022-08-02T21:05:56.132Z,98940.04
2022-08-02T21:16:25.661Z,98935.98
2022-08-02T21:26:56.933Z,98935.89
2022-08-02T21:37:33.199Z,98935.42
2022-08-02T21:48:14.097Z,98935.39
2022-08-02T21:58:43.364Z,98935.60
2022-08-02T22:09:17.662Z,98940.76
2022-08-02T22:20:02.154Z,98948.97
2022-08-02T22:30:31.327Z,98948.18
2022-08-02T22:41:00.606Z,98957.93
2022-08-02T22:51:30.396Z,98962.10
2022-08-02T23:02:01.795Z,98953.55
2022-08-02T23:12:31.077Z,98951.90
2022-08-02T23:23:00.324Z,98947.29
2022-08-02T23:33:29.544Z,98946.73
2022-08-02T23:44:12.891Z,98939.48
2022-08-02T23:54:43.025Z,98941.50
